sensor_id;sensor_type;location;lat;lon;timestamp;pressure;altitude;pressure_sealevel;temperature;humidity
44138;BME280;29800;55.942;37.314;2023-01-05T00:01:47;98612.72;;;0.40;59.27
44138;BME280;29800;55.942;37.314;2023-01-05T00:04:14;98615.63;;;0.45;59.14
44138;BME280;29800;55.942;37.314;2023-01-05T00:06:41;98610.00;;;0.53;59.61
44138;BME280;29800;55.942;37.314;2023-01-05T00:09:08;98607.31;;;0.53;59.50
44138;BME280;29800;55.942;37.314;2023-01-05T00:11:35;98614.34;;;0.54;59.25
44138;BME280;29800;55.942;37.314;2023-01-05T00:14:24;98613.09;;;0.50;59.36
44138;BME280;29800;55.942;37.314;2023-01-05T00:17:17;98613.09;;;0.57;59.31
44138;BME280;29800;55.942;37.314;2023-01-05T00:20:04;98614.41;;;0.41;59.48
44138;BME280;29800;55.942;37.314;2023-01-05T00:22:51;98606.56;;;0.20;60.54
44138;BME280;29800;55.942;37.314;2023-01-05T00:25:29;98614.41;;;0.28;60.57
44138;BME280;29800;55.942;37.314;2023-01-05T00:27:55;98605.31;;;0.29;59.81
44138;BME280;29800;55.942;37.314;2023-01-05T00:30:26;98600.09;;;0.41;59.58
44138;BME280;29800;55.942;37.314;2023-01-05T00:32:52;98602.75;;;0.47;59.53
44138;BME280;29800;55.942;37.314;2023-01-05T00:35:19;98597.56;;;0.46;58.54
44138;BME280;29800;55.942;37.314;2023-01-05T00:37:46;98599.47;;;0.45;58.66
44138;BME280;29800;55.942;37.314;2023-01-05T00:40:15;98598.00;;;0.49;59.06
44138;BME280;29800;55.942;37.314;2023-01-05T00:42:41;98598.44;;;0.46;58.48
44138;BME280;29800;55.942;37.314;2023-01-05T00:45:10;98592.84;;;0.48;58.41
44138;BME280;29800;55.942;37.314;2023-01-05T00:47:37;98590.34;;;0.46;58.29
44138;BME280;29800;55.942;37.314;2023-01-05T00:50:04;98588.88;;;0.50;58.13
44138;BME280;29800;55.942;37.314;2023-01-05T00:52:31;98588.69;;;0.45;58.47
44138;BME280;29800;55.942;37.314;2023-01-05T00:54:57;98580.19;;;0.48;58.38
44138;BME280;29800;55.942;37.314;2023-01-05T00:57:23;98582.03;;;0.54;58.21
44138;BME280;29800;55.942;37.314;2023-01-05T00:59:51;98584.50;;;0.56;57.86
44138;BME280;29800;55.942;37.314;2023-01-05T01:02:18;98580.13;;;0.62;57.28
44138;BME280;29800;55.942;37.314;2023-01-05T01:04:45;98582.81;;;0.62;57.47
44138;BME280;29800;55.942;37.314;2023-01-05T01:07:11;98582.41;;;0.65;56.66
44138;BME280;29800;55.942;37.314;2023-01-05T01:09:37;98583.22;;;0.65;56.83
44138;BME280;29800;55.942;37.314;2023-01-05T01:12:04;98582.00;;;0.61;56.81
44138;BME280;29800;55.942;37.314;2023-01-05T01:14:30;98572.47;;;0.59;57.12
44138;BME280;29800;55.942;37.314;2023-01-05T01:16:56;98575.59;;;0.55;57.52
44138;BME280;29800;55.942;37.314;2023-01-05T01:19:23;98566.47;;;0.57;57.44
44138;BME280;29800;55.942;37.314;2023-01-05T01:21:50;98582.22;;;0.60;56.96
44138;BME280;29800;55.942;37.314;2023-01-05T01:24:25;98573.06;;;0.61;56.95
44138;BME280;29800;55.942;37.314;2023-01-05T01:26:53;98569.34;;;0.62;57.31
44138;BME280;29800;55.942;37.314;2023-01-05T01:29:20;98566.69;;;0.55;56.66
44138;BME280;29800;55.942;37.314;2023-01-05T01:31:48;98567.53;;;0.49;56.63
44138;BME280;29800;55.942;37.314;2023-01-05T01:34:15;98583.31;;;0.45;57.35
44138;BME280;29800;55.942;37.314;2023-01-05T01:36:41;98570.47;;;0.41;56.17
44138;BME280;29800;55.942;37.314;2023-01-05T01:39:10;98576.31;;;0.24;57.12
44138;BME280;29800;55.942;37.314;2023-01-05T01:41:39;98577.59;;;0.15;56.95
44138;BME280;29800;55.942;37.314;2023-01-05T01:47:13;98589.22;;;0.02;57.16
44138;BME280;29800;55.942;37.314;2023-01-05T01:49:40;98579.72;;;-0.07;57.79
44138;BME280;29800;55.942;37.314;2023-01-05T01:52:06;98577.03;;;-0.07;57.96
44138;BME280;29800;55.942;37.314;2023-01-05T01:54:33;98576.41;;;-0.03;57.76
44138;BME280;29800;55.942;37.314;2023-01-05T01:56:58;98573.47;;;0.06;57.60
44138;BME280;29800;55.942;37.314;2023-01-05T01:59:25;98577.19;;;0.11;57.96
44138;BME280;29800;55.942;37.314;2023-01-05T02:01:54;98572.63;;;0.18;57.41
44138;BME280;29800;55.942;37.314;2023-01-05T02:04:24;98575.50;;;0.24;57.08
44138;BME280;29800;55.942;37.314;2023-01-05T02:06:51;98569.72;;;0.20;57.35
44138;BME280;29800;55.942;37.314;2023-01-05T02:09:18;98570.72;;;0.26;57.49
44138;BME280;29800;55.942;37.314;2023-01-05T02:20:48;98562.44;;;0.27;57.70
44138;BME280;29800;55.942;37.314;2023-01-05T02:26:42;98564.13;;;0.28;58.04
44138;BME280;29800;55.942;37.314;2023-01-05T02:29:41;98560.16;;;0.31;58.45
44138;BME280;29800;55.942;37.314;2023-01-05T02:32:43;98553.94;;;0.37;58.26
44138;BME280;29800;55.942;37.314;2023-01-05T02:41:20;98543.13;;;0.44;58.47
44138;BME280;29800;55.942;37.314;2023-01-05T02:43:48;98546.63;;;0.44;57.86
44138;BME280;29800;55.942;37.314;2023-01-05T02:46:14;98555.19;;;0.34;57.32
44138;BME280;29800;55.942;37.314;2023-01-05T02:48:41;98547.31;;;0.33;58.45
44138;BME280;29800;55.942;37.314;2023-01-05T02:51:21;98547.69;;;0.43;57.62
44138;BME280;29800;55.942;37.314;2023-01-05T02:53:53;98543.94;;;0.44;57.89
44138;BME280;29800;55.942;37.314;2023-01-05T02:56:33;98546.22;;;0.47;57.41
44138;BME280;29800;55.942;37.314;2023-01-05T02:59:05;98543.34;;;0.42;57.16
44138;BME280;29800;55.942;37.314;2023-01-05T03:01:39;98539.66;;;0.36;57.74
44138;BME280;29800;55.942;37.314;2023-01-05T03:05:24;98537.16;;;0.35;57.68
44138;BME280;29800;55.942;37.314;2023-01-05T03:07:24;98532.44;;;0.24;57.28
44138;BME280;29800;55.942;37.314;2023-01-05T03:09:53;98529.81;;;0.10;57.77
44138;BME280;29800;55.942;37.314;2023-01-05T03:12:32;98533.09;;;0.12;57.20
44138;BME280;29800;55.942;37.314;2023-01-05T03:15:24;98522.16;;;0.07;57.69
44138;BME280;29800;55.942;37.314;2023-01-05T03:17:56;98524.03;;;0.00;57.26
44138;BME280;29800;55.942;37.314;2023-01-05T03:20:26;98515.34;;;-0.02;57.46
44138;BME280;29800;55.942;37.314;2023-01-05T03:22:55;98524.25;;;-0.02;57.55
44138;BME280;29800;55.942;37.314;2023-01-05T03:25:42;98504.75;;;0.03;57.61
44138;BME280;29800;55.942;37.314;2023-01-05T03:28:36;98505.59;;;0.04;57.18
44138;BME280;29800;55.942;37.314;2023-01-05T03:37:25;98498.16;;;-0.01;56.99
44138;BME280;29800;55.942;37.314;2023-01-05T03:39:52;98505.66;;;-0.10;56.91
44138;BME280;29800;55.942;37.314;2023-01-05T03:42:19;98503.78;;;-0.09;57.34
44138;BME280;29800;55.942;37.314;2023-01-05T03:44:45;98500.47;;;-0.11;57.18
44138;BME280;29800;55.942;37.314;2023-01-05T03:47:15;98504.19;;;-0.12;56.73
44138;BME280;29800;55.942;37.314;2023-01-05T03:49:43;98507.13;;;-0.21;56.95
44138;BME280;29800;55.942;37.314;2023-01-05T03:52:09;98504.63;;;-0.15;56.92
44138;BME280;29800;55.942;37.314;2023-01-05T03:54:39;98498.25;;;-0.28;56.38
44138;BME280;29800;55.942;37.314;2023-01-05T03:57:05;98500.31;;;-0.37;56.24
44138;BME280;29800;55.942;37.314;2023-01-05T03:59:32;98498.69;;;-0.38;56.43
44138;BME280;29800;55.942;37.314;2023-01-05T04:01:59;98492.88;;;-0.48;56.27
44138;BME280;29800;55.942;37.314;2023-01-05T04:04:25;98501.78;;;-0.47;56.43
44138;BME280;29800;55.942;37.314;2023-01-05T04:06:52;98494.94;;;-0.43;56.32
44138;BME280;29800;55.942;37.314;2023-01-05T04:09:18;98490.84;;;-0.46;56.17
44138;BME280;29800;55.942;37.314;2023-01-05T04:11:45;98488.53;;;-0.42;56.01
44138;BME280;29800;55.942;37.314;2023-01-05T04:14:12;98478.81;;;-0.37;55.99
44138;BME280;29800;55.942;37.314;2023-01-05T04:16:38;98477.56;;;-0.34;56.12
44138;BME280;29800;55.942;37.314;2023-01-05T04:19:18;98485.00;;;-0.29;56.21
44138;BME280;29800;55.942;37.314;2023-01-05T04:21:45;98483.75;;;-0.27;56.04
44138;BME280;29800;55.942;37.314;2023-01-05T04:24:12;98489.97;;;-0.26;56.48
44138;BME280;29800;55.942;37.314;2023-01-05T04:26:41;98486.44;;;-0.27;56.58
44138;BME280;29800;55.942;37.314;2023-01-05T04:29:10;98483.31;;;-0.24;56.14
44138;BME280;29800;55.942;37.314;2023-01-05T04:31:37;98484.16;;;-0.23;55.84
44138;BME280;29800;55.942;37.314;2023-01-05T04:34:04;98483.94;;;-0.22;56.00
44138;BME280;29800;55.942;37.314;2023-01-05T04:36:31;98475.44;;;-0.19;55.60
44138;BME280;29800;55.942;37.314;2023-01-05T04:38:57;98478.34;;;-0.20;55.72
44138;BME280;29800;55.942;37.314;2023-01-05T04:41:23;98480.22;;;-0.21;55.90
44138;BME280;29800;55.942;37.314;2023-01-05T04:43:51;98475.50;;;-0.32;55.87
44138;BME280;29800;55.942;37.314;2023-01-05T04:46:19;98470.53;;;-0.35;55.83
44138;BME280;29800;55.942;37.314;2023-01-05T04:48:47;98465.16;;;-0.35;56.16
44138;BME280;29800;55.942;37.314;2023-01-05T04:51:14;98464.34;;;-0.35;56.25
44138;BME280;29800;55.942;37.314;2023-01-05T04:53:41;98470.09;;;-0.32;56.56
44138;BME280;29800;55.942;37.314;2023-01-05T04:56:12;98474.25;;;-0.29;55.98
44138;BME280;29800;55.942;37.314;2023-01-05T04:58:41;98476.06;;;-0.23;56.01
44138;BME280;29800;55.942;37.314;2023-01-05T05:01:08;98468.84;;;-0.23;55.53
44138;BME280;29800;55.942;37.314;2023-01-05T05:03:36;98471.13;;;-0.20;55.94
44138;BME280;29800;55.942;37.314;2023-01-05T05:06:05;98467.59;;;-0.20;55.74
44138;BME280;29800;55.942;37.314;2023-01-05T05:08:31;98466.16;;;-0.23;55.77
44138;BME280;29800;55.942;37.314;2023-01-05T05:10:59;98466.16;;;-0.23;55.97
44138;BME280;29800;55.942;37.314;2023-01-05T05:13:28;98466.34;;;-0.17;56.22
44138;BME280;29800;55.942;37.314;2023-01-05T05:15:57;98462.41;;;-0.22;55.82
44138;BME280;29800;55.942;37.314;2023-01-05T05:18:23;98462.22;;;-0.27;56.28
44138;BME280;29800;55.942;37.314;2023-01-05T05:20:51;98461.63;;;-0.29;55.63
44138;BME280;29800;55.942;37.314;2023-01-05T05:23:22;98458.94;;;-0.29;56.32
44138;BME280;29800;55.942;37.314;2023-01-05T05:25:50;98458.50;;;-0.26;56.29
44138;BME280;29800;55.942;37.314;2023-01-05T05:28:18;98462.41;;;-0.22;55.70
44138;BME280;29800;55.942;37.314;2023-01-05T05:30:47;98455.59;;;-0.17;56.35
44138;BME280;29800;55.942;37.314;2023-01-05T05:33:13;98451.84;;;-0.16;55.59
44138;BME280;29800;55.942;37.314;2023-01-05T05:35:39;98454.31;;;-0.15;56.06
44138;BME280;29800;55.942;37.314;2023-01-05T05:38:06;98450.00;;;-0.16;55.59
44138;BME280;29800;55.942;37.314;2023-01-05T05:40:32;98444.41;;;-0.14;55.55
44138;BME280;29800;55.942;37.314;2023-01-05T05:42:58;98449.38;;;-0.11;56.16
44138;BME280;29800;55.942;37.314;2023-01-05T05:45:24;98452.03;;;-0.05;56.01
44138;BME280;29800;55.942;37.314;2023-01-05T05:47:50;98457.41;;;-0.05;55.90
44138;BME280;29800;55.942;37.314;2023-01-05T05:50:16;98454.31;;;-0.02;56.33
44138;BME280;29800;55.942;37.314;2023-01-05T05:52:45;98456.34;;;-0.04;55.95
44138;BME280;29800;55.942;37.314;2023-01-05T05:55:12;98457.59;;;0.01;55.33
44138;BME280;29800;55.942;37.314;2023-01-05T05:57:38;98450.56;;;-0.01;54.72
44138;BME280;29800;55.942;37.314;2023-01-05T06:00:05;98449.31;;;0.02;55.63
44138;BME280;29800;55.942;37.314;2023-01-05T06:02:38;98453.47;;;-0.02;55.25
44138;BME280;29800;55.942;37.314;2023-01-05T06:05:05;98450.56;;;-0.01;55.55
44138;BME280;29800;55.942;37.314;2023-01-05T06:07:31;98455.13;;;-0.01;55.74
44138;BME280;29800;55.942;37.314;2023-01-05T06:09:57;98457.63;;;-0.06;55.25
44138;BME280;29800;55.942;37.314;2023-01-05T06:12:23;98450.19;;;-0.11;55.53
44138;BME280;29800;55.942;37.314;2023-01-05T06:14:49;98446.03;;;-0.13;55.62
44138;BME280;29800;55.942;37.314;2023-01-05T06:17:15;98446.91;;;-0.13;55.34
44138;BME280;29800;55.942;37.314;2023-01-05T06:19:42;98443.13;;;-0.05;55.93
44138;BME280;29800;55.942;37.314;2023-01-05T06:22:08;98443.75;;;-0.03;55.62
44138;BME280;29800;55.942;37.314;2023-01-05T06:24:34;98441.06;;;-0.03;55.46
44138;BME280;29800;55.942;37.314;2023-01-05T06:27:00;98444.97;;;0.01;55.02
44138;BME280;29800;55.942;37.314;2023-01-05T06:29:26;98442.69;;;-0.02;54.84
44138;BME280;29800;55.942;37.314;2023-01-05T06:31:52;98442.28;;;0.01;54.59
44138;BME280;29800;55.942;37.314;2023-01-05T06:34:18;98434.00;;;0.03;54.76
44138;BME280;29800;55.942;37.314;2023-01-05T06:36:44;98437.91;;;0.07;54.94
44138;BME280;29800;55.942;37.314;2023-01-05T06:39:10;98430.66;;;0.07;54.92
44138;BME280;29800;55.942;37.314;2023-01-05T06:41:36;98434.81;;;0.03;54.24
44138;BME280;29800;55.942;37.314;2023-01-05T06:44:02;98431.31;;;-0.04;54.26
44138;BME280;29800;55.942;37.314;2023-01-05T06:46:28;98428.03;;;-0.06;54.57
44138;BME280;29800;55.942;37.314;2023-01-05T06:48:54;98431.97;;;-0.09;54.29
44138;BME280;29800;55.942;37.314;2023-01-05T06:51:20;98435.28;;;-0.13;54.72
44138;BME280;29800;55.942;37.314;2023-01-05T06:53:46;98430.31;;;-0.16;54.54
44138;BME280;29800;55.942;37.314;2023-01-05T06:56:12;98431.56;;;-0.12;54.80
44138;BME280;29800;55.942;37.314;2023-01-05T06:58:38;98421.59;;;-0.05;54.52
44138;BME280;29800;55.942;37.314;2023-01-05T07:01:04;98431.94;;;-0.02;54.79
44138;BME280;29800;55.942;37.314;2023-01-05T07:03:30;98427.00;;;-0.12;54.40
44138;BME280;29800;55.942;37.314;2023-01-05T07:05:56;98432.66;;;-0.27;54.43
44138;BME280;29800;55.942;37.314;2023-01-05T07:08:22;98425.44;;;-0.40;54.89
44138;BME280;29800;55.942;37.314;2023-01-05T07:10:48;98435.41;;;-0.47;54.95
44138;BME280;29800;55.942;37.314;2023-01-05T07:13:15;98435.41;;;-0.53;55.63
44138;BME280;29800;55.942;37.314;2023-01-05T07:15:41;98435.84;;;-0.57;55.31
44138;BME280;29800;55.942;37.314;2023-01-05T07:18:07;98434.63;;;-0.61;54.86
44138;BME280;29800;55.942;37.314;2023-01-05T07:20:33;98430.88;;;-0.66;54.84
44138;BME280;29800;55.942;37.314;2023-01-05T07:22:59;98432.97;;;-0.68;54.74
44138;BME280;29800;55.942;37.314;2023-01-05T07:25:25;98437.50;;;-0.76;54.89
44138;BME280;29800;55.942;37.314;2023-01-05T07:27:56;98441.66;;;-0.80;55.19
44138;BME280;29800;55.942;37.314;2023-01-05T07:30:23;98437.94;;;-0.85;55.24
44138;BME280;29800;55.942;37.314;2023-01-05T07:32:49;98435.88;;;-0.83;55.25
44138;BME280;29800;55.942;37.314;2023-01-05T07:35:15;98434.00;;;-0.76;55.13
44138;BME280;29800;55.942;37.314;2023-01-05T07:37:41;98438.75;;;-0.71;54.44
44138;BME280;29800;55.942;37.314;2023-01-05T07:40:09;98439.56;;;-0.64;54.50
44138;BME280;29800;55.942;37.314;2023-01-05T07:42:35;98445.75;;;-0.57;54.54
44138;BME280;29800;55.942;37.314;2023-01-05T07:45:03;98437.91;;;-0.59;54.49
44138;BME280;29800;55.942;37.314;2023-01-05T07:47:29;98440.78;;;-0.53;54.71
44138;BME280;29800;55.942;37.314;2023-01-05T07:49:56;98447.41;;;-0.56;54.27
44138;BME280;29800;55.942;37.314;2023-01-05T07:52:22;98439.53;;;-0.51;54.33
44138;BME280;29800;55.942;37.314;2023-01-05T07:54:48;98438.09;;;-0.47;53.96
44138;BME280;29800;55.942;37.314;2023-01-05T07:57:14;98443.44;;;-0.40;54.16
44138;BME280;29800;55.942;37.314;2023-01-05T07:59:40;98441.78;;;-0.41;53.12
44138;BME280;29800;55.942;37.314;2023-01-05T08:02:07;98436.22;;;-0.46;53.81
44138;BME280;29800;55.942;37.314;2023-01-05T08:04:34;98440.19;;;-0.62;54.21
44138;BME280;29800;55.942;37.314;2023-01-05T08:07:00;98426.13;;;-0.71;54.46
44138;BME280;29800;55.942;37.314;2023-01-05T08:09:27;98436.25;;;-0.66;54.05
44138;BME280;29800;55.942;37.314;2023-01-05T08:12:11;98438.13;;;-0.67;54.43
44138;BME280;29800;55.942;37.314;2023-01-05T08:14:37;98437.94;;;-0.72;53.99
44138;BME280;29800;55.942;37.314;2023-01-05T08:17:03;98437.09;;;-0.72;53.89
44138;BME280;29800;55.942;37.314;2023-01-05T08:19:29;98444.16;;;-0.85;53.84
44138;BME280;29800;55.942;37.314;2023-01-05T08:21:55;98444.34;;;-0.86;54.04
44138;BME280;29800;55.942;37.314;2023-01-05T08:24:21;98441.06;;;-0.88;53.94
44138;BME280;29800;55.942;37.314;2023-01-05T08:26:50;98436.28;;;-0.86;53.72
44138;BME280;29800;55.942;37.314;2023-01-05T08:29:16;98433.19;;;-0.90;53.58
44138;BME280;29800;55.942;37.314;2023-01-05T08:31:43;98433.00;;;-0.95;53.19
44138;BME280;29800;55.942;37.314;2023-01-05T08:34:09;98424.72;;;-1.07;53.05
44138;BME280;29800;55.942;37.314;2023-01-05T08:36:35;98430.09;;;-1.07;53.36
44138;BME280;29800;55.942;37.314;2023-01-05T08:39:01;98438.78;;;-0.91;53.35
44138;BME280;29800;55.942;37.314;2023-01-05T08:41:33;98431.13;;;-0.81;52.85
44138;BME280;29800;55.942;37.314;2023-01-05T08:44:03;98433.59;;;-0.73;52.55
44138;BME280;29800;55.942;37.314;2023-01-05T08:46:32;98427.59;;;-0.68;52.21
44138;BME280;29800;55.942;37.314;2023-01-05T08:49:01;98424.28;;;-0.64;52.27
44138;BME280;29800;55.942;37.314;2023-01-05T08:51:28;98418.69;;;-0.56;51.68
44138;BME280;29800;55.942;37.314;2023-01-05T08:53:55;98417.84;;;-0.63;51.30
44138;BME280;29800;55.942;37.314;2023-01-05T08:56:22;98431.72;;;-0.79;51.34
44138;BME280;29800;55.942;37.314;2023-01-05T08:58:49;98415.44;;;-0.98;52.25
44138;BME280;29800;55.942;37.314;2023-01-05T09:01:17;98421.63;;;-0.97;52.45
44138;BME280;29800;55.942;37.314;2023-01-05T09:03:44;98421.41;;;-0.96;52.55
44138;BME280;29800;55.942;37.314;2023-01-05T09:06:11;98414.81;;;-0.86;52.06
44138;BME280;29800;55.942;37.314;2023-01-05T09:08:39;98409.00;;;-0.83;51.84
44138;BME280;29800;55.942;37.314;2023-01-05T09:13:39;98409.03;;;-0.97;52.21
44138;BME280;29800;55.942;37.314;2023-01-05T09:16:06;98402.81;;;-1.04;51.99
44138;BME280;29800;55.942;37.314;2023-01-05T09:18:34;98405.91;;;-1.07;52.29
44138;BME280;29800;55.942;37.314;2023-01-05T09:21:00;98401.38;;;-1.06;52.24
44138;BME280;29800;55.942;37.314;2023-01-05T09:23:26;98396.22;;;-1.08;51.87
44138;BME280;29800;55.942;37.314;2023-01-05T09:25:52;98396.84;;;-1.06;51.64
44138;BME280;29800;55.942;37.314;2023-01-05T09:28:18;98390.22;;;-1.10;51.58
44138;BME280;29800;55.942;37.314;2023-01-05T09:30:44;98399.72;;;-1.14;51.86
44138;BME280;29800;55.942;37.314;2023-01-05T09:33:10;98392.09;;;-1.17;51.18
44138;BME280;29800;55.942;37.314;2023-01-05T09:35:36;98385.50;;;-1.21;51.46
44138;BME280;29800;55.942;37.314;2023-01-05T09:38:02;98381.75;;;-1.20;51.71
44138;BME280;29800;55.942;37.314;2023-01-05T09:40:30;98385.25;;;-1.20;51.75
44138;BME280;29800;55.942;37.314;2023-01-05T09:42:59;98386.09;;;-1.19;51.44
44138;BME280;29800;55.942;37.314;2023-01-05T09:45:26;98385.50;;;-1.15;51.43
44138;BME280;29800;55.942;37.314;2023-01-05T09:47:54;98372.66;;;-1.06;50.97
44138;BME280;29800;55.942;37.314;2023-01-05T09:50:24;98380.91;;;-1.01;50.78
44138;BME280;29800;55.942;37.314;2023-01-05T09:52:54;98365.41;;;-0.99;50.43
44138;BME280;29800;55.942;37.314;2023-01-05T09:55:24;98374.31;;;-0.98;50.11
44138;BME280;29800;55.942;37.314;2023-01-05T09:57:55;98364.00;;;-1.08;50.02
44138;BME280;29800;55.942;37.314;2023-01-05T10:00:23;98377.22;;;-1.13;49.78
44138;BME280;29800;55.942;37.314;2023-01-05T10:03:02;98366.47;;;-1.20;49.77
44138;BME280;29800;55.942;37.314;2023-01-05T10:05:38;98369.38;;;-1.21;49.88
44138;BME280;29800;55.942;37.314;2023-01-05T10:08:23;98371.03;;;-1.27;49.41
44138;BME280;29800;55.942;37.314;2023-01-05T10:11:02;98370.41;;;-1.36;49.84
44138;BME280;29800;55.942;37.314;2023-01-05T10:13:58;98365.25;;;-1.37;49.56
44138;BME280;29800;55.942;37.314;2023-01-05T10:16:25;98359.69;;;-1.36;49.36
44138;BME280;29800;55.942;37.314;2023-01-05T10:18:53;98362.97;;;-1.34;49.06
44138;BME280;29800;55.942;37.314;2023-01-05T10:21:24;98354.09;;;-1.27;49.19
44138;BME280;29800;55.942;37.314;2023-01-05T10:26:48;98358.00;;;-1.30;49.16
44138;BME280;29800;55.942;37.314;2023-01-05T10:29:33;98359.47;;;-1.34;49.16
44138;BME280;29800;55.942;37.314;2023-01-05T10:32:28;98354.69;;;-1.19;49.32
44138;BME280;29800;55.942;37.314;2023-01-05T10:34:59;98360.47;;;-1.28;48.96
44138;BME280;29800;55.942;37.314;2023-01-05T10:46:15;98342.53;;;-1.21;48.71
44138;BME280;29800;55.942;37.314;2023-01-05T10:48:41;98349.75;;;-1.28;49.01
44138;BME280;29800;55.942;37.314;2023-01-05T10:51:08;98351.22;;;-1.33;49.02
44138;BME280;29800;55.942;37.314;2023-01-05T10:53:36;98358.63;;;-1.41;49.13
44138;BME280;29800;55.942;37.314;2023-01-05T10:56:23;98348.28;;;-1.38;49.52
44138;BME280;29800;55.942;37.314;2023-01-05T10:59:06;98350.78;;;-1.43;49.31
44138;BME280;29800;55.942;37.314;2023-01-05T11:01:34;98363.78;;;-1.53;49.46
44138;BME280;29800;55.942;37.314;2023-01-05T11:04:20;98357.59;;;-1.47;49.54
44138;BME280;29800;55.942;37.314;2023-01-05T11:06:49;98347.69;;;-1.60;49.42
44138;BME280;29800;55.942;37.314;2023-01-05T11:09:21;98347.88;;;-1.61;49.64
44138;BME280;29800;55.942;37.314;2023-01-05T11:11:56;98350.78;;;-1.63;49.54
44138;BME280;29800;55.942;37.314;2023-01-05T11:14:24;98349.53;;;-1.67;49.53
44138;BME280;29800;55.942;37.314;2023-01-05T11:16:54;98350.56;;;-1.75;49.46
44138;BME280;29800;55.942;37.314;2023-01-05T11:19:29;98352.00;;;-1.72;49.58
44138;BME280;29800;55.942;37.314;2023-01-05T11:21:56;98344.59;;;-1.77;49.64
44138;BME280;29800;55.942;37.314;2023-01-05T11:24:32;98349.53;;;-1.74;49.65
44138;BME280;29800;55.942;37.314;2023-01-05T11:27:03;98357.13;;;-1.84;49.68
44138;BME280;29800;55.942;37.314;2023-01-05T11:32:45;98360.22;;;-1.80;49.99
44138;BME280;29800;55.942;37.314;2023-01-05T11:35:35;98354.66;;;-1.79;50.13
44138;BME280;29800;55.942;37.314;2023-01-05T11:38:02;98348.28;;;-1.91;49.75
44138;BME280;29800;55.942;37.314;2023-01-05T11:40:33;98352.81;;;-1.92;49.53
44138;BME280;29800;55.942;37.314;2023-01-05T11:43:09;98359.59;;;-2.03;49.47
44138;BME280;29800;55.942;37.314;2023-01-05T11:45:51;98361.00;;;-2.13;49.70
44138;BME280;29800;55.942;37.314;2023-01-05T11:48:21;98362.22;;;-2.23;49.42
44138;BME280;29800;55.942;37.314;2023-01-05T11:50:50;98358.88;;;-2.31;49.30
44138;BME280;29800;55.942;37.314;2023-01-05T11:53:25;98363.00;;;-2.35;48.98
44138;BME280;29800;55.942;37.314;2023-01-05T11:56:13;98358.03;;;-2.38;49.20
44138;BME280;29800;55.942;37.314;2023-01-05T11:58:47;98356.34;;;-2.40;49.02
44138;BME280;29800;55.942;37.314;2023-01-05T12:07:33;98359.19;;;-2.54;49.07
44138;BME280;29800;55.942;37.314;2023-01-05T12:12:57;98359.94;;;-2.67;48.37
44138;BME280;29800;55.942;37.314;2023-01-05T12:23:38;98361.38;;;-3.06;48.83
44138;BME280;29800;55.942;37.314;2023-01-05T12:31:47;98365.47;;;-3.10;49.23
44138;BME280;29800;55.942;37.314;2023-01-05T12:36:47;98364.59;;;-3.18;49.45
44138;BME280;29800;55.942;37.314;2023-01-05T12:39:39;98363.84;;;-3.11;49.78
44138;BME280;29800;55.942;37.314;2023-01-05T12:48:12;98368.63;;;-3.00;50.15
44138;BME280;29800;55.942;37.314;2023-01-05T12:50:56;98377.31;;;-2.98;50.38
44138;BME280;29800;55.942;37.314;2023-01-05T12:53:49;98373.81;;;-2.92;50.36
44138;BME280;29800;55.942;37.314;2023-01-05T12:56:27;98369.91;;;-2.96;50.20
44138;BME280;29800;55.942;37.314;2023-01-05T13:01:26;98367.75;;;-3.07;50.81
44138;BME280;29800;55.942;37.314;2023-01-05T13:04:05;98373.94;;;-3.07;49.89
44138;BME280;29800;55.942;37.314;2023-01-05T13:06:39;98370.38;;;-3.14;50.01
44138;BME280;29800;55.942;37.314;2023-01-05T13:09:11;98373.03;;;-3.21;50.44
44138;BME280;29800;55.942;37.314;2023-01-05T13:11:52;98381.81;;;-3.27;50.96
44138;BME280;29800;55.942;37.314;2023-01-05T13:14:33;98390.44;;;-3.32;50.79
44138;BME280;29800;55.942;37.314;2023-01-05T13:17:05;98382.72;;;-3.41;51.13
44138;BME280;29800;55.942;37.314;2023-01-05T13:19:36;98385.41;;;-3.41;51.38
44138;BME280;29800;55.942;37.314;2023-01-05T13:22:20;98378.91;;;-3.32;51.32
44138;BME280;29800;55.942;37.314;2023-01-05T13:25:20;98386.75;;;-3.30;51.52
44138;BME280;29800;55.942;37.314;2023-01-05T13:27:45;98385.41;;;-3.41;51.27
44138;BME280;29800;55.942;37.314;2023-01-05T13:30:25;98387.47;;;-3.43;51.21
44138;BME280;29800;55.942;37.314;2023-01-05T13:32:58;98394.78;;;-3.52;51.38
44138;BME280;29800;55.942;37.314;2023-01-05T13:41:23;98400.03;;;-3.65;51.51
44138;BME280;29800;55.942;37.314;2023-01-05T13:47:00;98409.00;;;-3.73;51.54
44138;BME280;29800;55.942;37.314;2023-01-05T13:52:37;98408.44;;;-3.90;52.18
44138;BME280;29800;55.942;37.314;2023-01-05T13:55:12;98412.78;;;-4.04;52.56
44138;BME280;29800;55.942;37.314;2023-01-05T13:57:41;98419.25;;;-4.13;52.63
44138;BME280;29800;55.942;37.314;2023-01-05T14:03:25;98429.63;;;-4.03;52.69
44138;BME280;29800;55.942;37.314;2023-01-05T14:05:57;98433.50;;;-4.28;52.13
44138;BME280;29800;55.942;37.314;2023-01-05T14:08:32;98435.41;;;-4.36;52.32
44138;BME280;29800;55.942;37.314;2023-01-05T14:11:14;98431.56;;;-4.49;52.68
44138;BME280;29800;55.942;37.314;2023-01-05T14:14:00;98442.91;;;-4.62;52.97
44138;BME280;29800;55.942;37.314;2023-01-05T14:22:23;98444.00;;;-4.71;53.38
44138;BME280;29800;55.942;37.314;2023-01-05T14:24:50;98443.25;;;-4.65;52.88
44138;BME280;29800;55.942;37.314;2023-01-05T14:27:21;98445.28;;;-4.52;52.37
44138;BME280;29800;55.942;37.314;2023-01-05T14:32:24;98450.91;;;-4.47;52.24
44138;BME280;29800;55.942;37.314;2023-01-05T14:34:54;98455.06;;;-4.44;52.06
44138;BME280;29800;55.942;37.314;2023-01-05T14:42:54;98450.00;;;-4.54;52.18
44138;BME280;29800;55.942;37.314;2023-01-05T14:45:27;98448.78;;;-4.51;51.97
44138;BME280;29800;55.942;37.314;2023-01-05T14:47:56;98452.75;;;-4.47;51.73
44138;BME280;29800;55.942;37.314;2023-01-05T14:50:41;98448.59;;;-4.35;51.80
44138;BME280;29800;55.942;37.314;2023-01-05T14:55:40;98464.44;;;-4.48;51.93
44138;BME280;29800;55.942;37.314;2023-01-05T15:09:46;98466.47;;;-4.80;50.94
44138;BME280;29800;55.942;37.314;2023-01-05T15:21:03;98472.84;;;-5.65;51.71